createdAt,value
2023-04-02T00:01:05.363Z,99131.53
2023-04-02T00:03:56.869Z,99129.69
2023-04-02T00:06:35.258Z,99125.39
2023-04-02T00:09:19.682Z,99134.06
2023-04-02T00:11:57.758Z,99133.24
2023-04-02T00:14:36.197Z,99137.45
2023-04-02T00:17:08.629Z,99132.97
2023-04-02T00:19:52.622Z,99135.50
2023-04-02T00:22:31.825Z,99130.19
2023-04-02T00:25:07.828Z,99137.02
2023-04-02T00:27:40.291Z,99144.02
2023-04-02T00:30:14.170Z,99151.70
2023-04-02T00:32:47.825Z,99150.77
2023-04-02T00:35:25.672Z,99153.22
2023-04-02T00:37:58.733Z,99154.08
2023-04-02T00:40:32.924Z,99149.51
2023-04-02T00:43:07.247Z,99157.20
2023-04-02T00:45:40.423Z,99152.78
2023-04-02T00:48:27.454Z,99158.88
2023-04-02T00:51:02.744Z,99157.11
2023-04-02T00:53:36.776Z,99159.53
2023-04-02T00:56:11.867Z,99156.09
2023-04-02T00:58:46.098Z,99168.98
2023-04-02T01:01:21.661Z,99164.69
2023-04-02T01:04:03.127Z,99160.97
2023-04-02T01:06:40.101Z,99168.00
2023-04-02T01:09:18.469Z,99165.38
2023-04-02T01:12:08.300Z,99165.19
2023-04-02T01:14:55.291Z,99157.33
2023-04-02T01:17:38.816Z,99160.64
2023-04-02T01:20:28.834Z,99161.38
2023-04-02T01:23:08.149Z,99165.67
2023-04-02T01:25:43.140Z,99168.98
2023-04-02T01:28:35.547Z,99167.11
2023-04-02T01:31:07.850Z,99166.95
2023-04-02T01:33:42.734Z,99165.92
2023-04-02T01:36:20.613Z,99170.22
2023-04-02T01:39:04.732Z,99163.14
2023-04-02T01:41:39.604Z,99164.91
2023-04-02T01:44:14.492Z,99160.36
2023-04-02T01:46:50.231Z,99159.50
2023-04-02T01:49:23.506Z,99162.03
2023-04-02T01:51:58.438Z,99155.86
2023-04-02T01:54:32.908Z,99153.32
2023-04-02T01:57:06.117Z,99155.86
2023-04-02T01:59:38.302Z,99150.70
2023-04-02T02:02:15.881Z,99148.94
2023-04-02T02:04:49.042Z,99149.88
2023-04-02T02:07:22.242Z,99149.02
2023-04-02T02:09:55.921Z,99153.32
2023-04-02T02:12:27.996Z,99167.27
2023-04-02T02:14:59.993Z,99164.56
2023-04-02T02:17:34.677Z,99161.87
2023-04-02T02:20:09.804Z,99159.12
2023-04-02T02:22:47.724Z,99159.12
2023-04-02T02:25:22.858Z,99155.69
2023-04-02T02:28:18.960Z,99157.37
2023-04-02T02:30:56.498Z,99159.12
2023-04-02T02:33:31.740Z,99157.37
2023-04-02T02:36:08.368Z,99166.98
2023-04-02T02:38:48.411Z,99160.76
2023-04-02T02:41:34.012Z,99173.85
2023-04-02T02:44:15.475Z,99174.68
2023-04-02T02:46:59.627Z,99173.85
2023-04-02T02:49:40.518Z,99170.37
2023-04-02T02:52:18.655Z,99173.85
2023-04-02T02:54:58.410Z,99170.37
2023-04-02T02:57:38.637Z,99166.73
2023-04-02T03:00:12.052Z,99168.50
2023-04-02T03:02:45.464Z,99172.14
2023-04-02T03:05:21.260Z,99170.46
2023-04-02T03:07:57.195Z,99172.22
2023-04-02T03:10:42.169Z,99173.08
2023-04-02T03:13:25.801Z,99174.77
2023-04-02T03:16:03.810Z,99183.48
2023-04-02T03:18:53.852Z,99193.09
2023-04-02T03:21:49.221Z,99182.62
2023-04-02T03:24:36.611Z,99192.84
2023-04-02T03:27:20.638Z,99194.44
2023-04-02T03:30:27.654Z,99194.36
2023-04-02T03:33:03.532Z,99195.95
2023-04-02T03:35:47.363Z,99197.55
2023-04-02T03:38:28.638Z,99190.55
2023-04-02T03:41:03.809Z,99192.06
2023-04-02T03:43:39.457Z,99210.31
2023-04-02T03:46:36.692Z,99201.52
2023-04-02T03:49:14.787Z,99197.87
2023-04-02T03:51:55.660Z,99202.00
2023-04-02T03:54:29.101Z,99201.83
2023-04-02T03:57:01.941Z,99202.57
2023-04-02T03:59:52.417Z,99198.09
2023-04-02T04:02:48.372Z,99205.19
2023-04-02T04:05:26.991Z,99202.57
2023-04-02T04:08:02.454Z,99202.48
2023-04-02T04:10:36.265Z,99189.30
2023-04-02T04:13:20.709Z,99184.70
2023-04-02T04:15:58.157Z,99191.45
2023-04-02T04:19:01.822Z,99192.23
2023-04-02T04:21:38.286Z,99189.48
2023-04-02T04:24:23.770Z,99192.80
2023-04-02T04:27:17.184Z,99197.00
2023-04-02T04:30:02.930Z,99195.13
2023-04-02T04:32:42.929Z,99206.20
2023-04-02T04:35:35.195Z,99210.33
2023-04-02T04:38:29.107Z,99210.98
2023-04-02T04:41:16.649Z,99216.87
2023-04-02T04:44:20.314Z,99213.34
2023-04-02T04:47:01.631Z,99216.70
2023-04-02T04:49:43.003Z,99220.18
2023-04-02T04:52:24.505Z,99227.19
2023-04-02T04:54:56.753Z,99228.88
2023-04-02T04:57:41.189Z,99231.49
2023-04-02T05:00:23.353Z,99228.05
2023-04-02T05:03:16.350Z,99237.51
2023-04-02T05:05:49.087Z,99223.45
2023-04-02T05:08:24.569Z,99231.14
2023-04-02T05:11:00.371Z,99222.33
2023-04-02T05:13:47.755Z,99232.65
2023-04-02T05:16:40.793Z,99227.11
2023-04-02T05:19:22.022Z,99234.98
2023-04-02T05:22:02.995Z,99233.98
2023-04-02T05:24:49.961Z,99241.02
2023-04-02T05:27:52.843Z,99236.72
2023-04-02T05:30:28.308Z,99228.91
2023-04-02T05:33:05.283Z,99234.33
2023-04-02T05:35:39.942Z,99243.97
2023-04-02T05:38:24.329Z,99247.44
2023-04-02T05:41:07.910Z,99257.20
2023-04-02T05:43:42.674Z,99252.69
2023-04-02T05:46:18.312Z,99255.14
2023-04-02T05:48:54.335Z,99251.56
2023-04-02T05:51:32.539Z,99247.22
2023-04-02T05:54:07.798Z,99253.11
2023-04-02T05:56:45.912Z,99247.48
2023-04-02T05:59:27.324Z,99250.31
2023-04-02T06:02:03.945Z,99255.94
2023-04-02T06:04:49.069Z,99250.69
2023-04-02T06:07:36.211Z,99256.41
2023-04-02T06:10:25.897Z,99256.05
2023-04-02T06:13:06.637Z,99257.24
2023-04-02T06:15:40.455Z,99254.81
2023-04-02T06:18:17.547Z,99254.23
2023-04-02T06:20:51.252Z,99264.15
2023-04-02T06:23:41.038Z,99255.50
2023-04-02T06:26:28.193Z,99267.95
2023-04-02T06:29:15.621Z,99268.22
2023-04-02T06:31:50.769Z,99251.86
2023-04-02T06:34:26.945Z,99254.98
2023-04-02T06:37:24.928Z,99253.04
2023-04-02T06:40:00.239Z,99251.73
2023-04-02T06:42:33.970Z,99247.20
2023-04-02T06:45:22.159Z,99253.55
2023-04-02T06:47:59.058Z,99247.63
2023-04-02T06:50:36.184Z,99243.00
2023-04-02T06:53:11.923Z,99244.08
2023-04-02T06:55:55.821Z,99245.13
2023-04-02T06:58:29.451Z,99244.73
2023-04-02T07:01:01.798Z,99252.95
2023-04-02T07:03:42.273Z,99252.75
2023-04-02T07:06:21.940Z,99260.31
2023-04-02T07:08:55.740Z,99260.22
2023-04-02T07:11:28.498Z,99264.63
2023-04-02T07:14:02.137Z,99269.37
2023-04-02T07:16:36.835Z,99257.27
2023-04-02T07:19:11.070Z,99262.00
2023-04-02T07:21:43.130Z,99261.91
2023-04-02T07:24:15.575Z,99259.27
2023-04-02T07:26:48.384Z,99265.69
2023-04-02T07:29:20.402Z,99271.25
2023-04-02T07:31:54.114Z,99269.87
2023-04-02T07:34:27.131Z,99268.81
2023-04-02T07:36:59.049Z,99277.52
2023-04-02T07:39:31.435Z,99279.61
2023-04-02T07:42:03.806Z,99282.53
2023-04-02T07:44:35.877Z,99282.53
2023-04-02T07:47:09.818Z,99283.92
2023-04-02T07:49:41.935Z,99277.52
2023-04-02T07:52:14.238Z,99288.03
2023-04-02T07:54:46.634Z,99289.17
2023-04-02T07:57:18.739Z,99294.53
2023-04-02T07:59:51.904Z,99289.08
2023-04-02T08:02:24.889Z,99285.75
2023-04-02T08:04:56.947Z,99283.91
2023-04-02T08:07:29.477Z,99292.24
2023-04-02T08:10:01.561Z,99290.76
2023-04-02T08:12:34.071Z,99290.11
2023-04-02T08:15:07.660Z,99295.28
2023-04-02T08:17:39.610Z,99296.09
2023-04-02T08:20:23.082Z,99292.64
2023-04-02T08:22:55.203Z,99293.16
2023-04-02T08:25:27.231Z,99298.01
2023-04-02T08:28:01.077Z,99304.57
2023-04-02T08:30:33.469Z,99300.66
2023-04-02T08:33:07.045Z,99303.83
2023-04-02T08:35:39.738Z,99308.02
2023-04-02T08:38:15.622Z,99300.95
2023-04-02T08:40:51.053Z,99301.77
2023-04-02T08:43:39.230Z,99301.24
2023-04-02T08:46:23.636Z,99302.20
2023-04-02T08:48:56.985Z,99299.47
2023-04-02T08:51:31.600Z,99311.70
2023-04-02T08:54:06.698Z,99306.84
2023-04-02T08:56:41.581Z,99299.50
2023-04-02T08:59:25.617Z,99303.38
2023-04-02T09:02:03.755Z,99301.38
2023-04-02T09:04:37.088Z,99297.36
2023-04-02T09:07:12.130Z,99291.77
2023-04-02T09:09:44.912Z,99283.34
2023-04-02T09:12:23.433Z,99297.42
2023-04-02T09:15:01.455Z,99305.73
2023-04-02T09:17:42.695Z,99296.89
2023-04-02T09:20:21.373Z,99304.78
2023-04-02T09:22:54.714Z,99307.41
2023-04-02T09:25:33.667Z,99312.88
2023-04-02T09:28:06.674Z,99306.13
2023-04-02T09:30:59.320Z,99305.30
2023-04-02T09:33:46.223Z,99307.61
2023-04-02T09:36:37.754Z,99301.95
2023-04-02T09:39:21.623Z,99308.70
2023-04-02T09:42:05.115Z,99319.95
2023-04-02T09:44:31.168Z,99315.45
2023-04-02T09:47:09.587Z,99319.95
2023-04-02T09:49:42.133Z,99319.42
2023-04-02T09:52:31.051Z,99308.28
2023-04-02T09:55:22.024Z,99312.00
2023-04-02T09:57:57.022Z,99311.48
2023-04-02T10:00:41.551Z,99314.23
2023-04-02T10:03:06.348Z,99319.07
2023-04-02T10:05:41.073Z,99316.86
2023-04-02T10:08:30.411Z,99322.88
2023-04-02T10:11:05.585Z,99314.13
2023-04-02T10:13:55.525Z,99317.28
2023-04-02T10:16:48.647Z,99317.08
2023-04-02T10:19:32.666Z,99322.69
2023-04-02T10:22:13.500Z,99321.93
2023-04-02T10:24:46.363Z,99327.09
2023-04-02T10:27:33.569Z,99327.63
2023-04-02T10:30:15.142Z,99328.98
2023-04-02T10:33:08.508Z,99313.19
2023-04-02T10:36:04.420Z,99325.52
2023-04-02T10:38:54.606Z,99323.94
2023-04-02T10:41:47.546Z,99319.50
2023-04-02T10:44:31.319Z,99325.05
2023-04-02T10:47:09.448Z,99317.56
2023-04-02T10:50:00.896Z,99309.75
2023-04-02T10:52:38.672Z,99313.63
2023-04-02T10:55:19.431Z,99297.66
2023-04-02T10:57:53.650Z,99296.53
2023-04-02T11:00:28.726Z,99291.19
2023-04-02T11:03:11.470Z,99290.22
2023-04-02T11:05:55.161Z,99290.88
2023-04-02T11:08:48.150Z,99290.59
2023-04-02T11:11:26.608Z,99301.93
2023-04-02T11:14:07.565Z,99300.48
2023-04-02T11:16:43.534Z,99289.30
2023-04-02T11:19:19.424Z,99289.73
2023-04-02T11:22:06.057Z,99292.00
2023-04-02T11:24:51.336Z,99295.29
2023-04-02T11:27:37.679Z,99288.70
2023-04-02T11:30:18.862Z,99278.90
2023-04-02T11:32:51.411Z,99267.75
2023-04-02T11:35:35.482Z,99272.62
2023-04-02T11:38:26.301Z,99292.87
2023-04-02T11:41:00.011Z,99289.72
2023-04-02T11:43:37.778Z,99294.30
2023-04-02T11:46:21.693Z,99293.77
2023-04-02T11:48:55.289Z,99300.64
2023-04-02T11:51:36.275Z,99297.42
2023-04-02T11:54:11.549Z,99306.43
2023-04-02T11:56:49.346Z,99294.30
2023-04-02T11:59:27.144Z,99302.46
2023-04-02T12:02:04.928Z,99302.69
2023-04-02T12:05:14.675Z,99299.19
2023-04-02T12:07:51.854Z,99306.55
2023-04-02T12:10:26.997Z,99303.31
2023-04-02T12:12:59.353Z,99307.26
2023-04-02T12:15:34.720Z,99299.56
2023-04-02T12:18:24.736Z,99298.25
2023-04-02T12:20:58.319Z,99294.79
2023-04-02T12:23:33.764Z,99301.53
2023-04-02T12:26:11.388Z,99303.67
2023-04-02T12:28:45.006Z,99300.29
2023-04-02T12:31:18.660Z,99297.61
2023-04-02T12:33:54.725Z,99305.04
2023-04-02T12:36:27.091Z,99306.11
2023-04-02T12:38:59.870Z,99301.94
2023-04-02T12:41:34.245Z,99301.98
2023-04-02T12:44:11.024Z,99296.56
2023-04-02T12:46:44.059Z,99312.95
2023-04-02T12:49:33.848Z,99313.05
2023-04-02T12:52:09.222Z,99307.84
2023-04-02T12:54:55.823Z,99320.36
2023-04-02T12:57:30.750Z,99310.64
2023-04-02T13:00:06.758Z,99309.70
2023-04-02T13:02:47.898Z,99303.18
2023-04-02T13:05:42.673Z,99312.31
2023-04-02T13:08:35.515Z,99310.84
2023-04-02T13:11:08.442Z,99317.05
2023-04-02T13:13:42.610Z,99316.50
2023-04-02T13:16:17.947Z,99316.81
2023-04-02T13:18:52.984Z,99318.57
2023-04-02T13:21:28.661Z,99317.66
2023-04-02T13:24:01.141Z,99322.16
2023-04-02T13:26:33.227Z,99322.73
2023-04-02T13:29:23.084Z,99320.41
2023-04-02T13:31:58.081Z,99323.26
2023-04-02T13:34:31.004Z,99324.68
2023-04-02T13:37:03.037Z,99321.54
2023-04-02T13:39:35.056Z,99324.28
2023-04-02T13:42:08.961Z,99320.18
2023-04-02T13:44:41.400Z,99325.34
2023-04-02T13:47:15.566Z,99321.00
2023-04-02T13:49:47.681Z,99327.98
2023-04-02T13:52:20.494Z,99328.70
2023-04-02T13:55:01.606Z,99321.30
2023-04-02T13:57:34.762Z,99323.26
2023-04-02T14:00:07.935Z,99325.26
2023-04-02T14:02:46.408Z,99323.12
2023-04-02T14:05:30.144Z,99317.38
2023-04-02T14:08:17.162Z,99313.34
2023-04-02T14:11:03.752Z,99313.95
2023-04-02T14:13:57.721Z,99317.44
2023-04-02T14:16:38.800Z,99319.23
2023-04-02T14:19:38.944Z,99312.38
2023-04-02T14:22:19.740Z,99315.27
2023-04-02T14:25:06.791Z,99318.23
2023-04-02T14:27:53.377Z,99322.91
2023-04-02T14:30:43.012Z,99323.12
2023-04-02T14:33:32.979Z,99321.44
2023-04-02T14:36:10.999Z,99322.91
2023-04-02T14:38:48.719Z,99315.70
2023-04-02T14:41:45.729Z,99312.74
2023-04-02T14:44:20.716Z,99314.30
2023-04-02T14:46:56.392Z,99311.56
2023-04-02T14:49:32.070Z,99308.92
2023-04-02T14:52:07.346Z,99303.00
2023-04-02T14:54:42.900Z,99309.25
2023-04-02T14:57:18.951Z,99312.10
2023-04-02T15:00:24.390Z,99314.74
2023-04-02T15:03:19.399Z,99313.17
2023-04-02T15:06:03.917Z,99314.35
2023-04-02T15:08:42.154Z,99311.81
2023-04-02T15:11:23.094Z,99307.72
2023-04-02T15:14:16.047Z,99317.77
2023-04-02T15:16:48.213Z,99312.00
2023-04-02T15:19:21.550Z,99308.86
2023-04-02T15:22:06.973Z,99312.98
2023-04-02T15:24:43.483Z,99314.37
2023-04-02T15:27:24.902Z,99311.33
2023-04-02T15:30:16.144Z,99318.94
2023-04-02T15:32:49.172Z,99316.86
2023-04-02T15:35:36.296Z,99314.84
2023-04-02T15:38:21.786Z,99310.84
2023-04-02T15:41:11.780Z,99316.32
2023-04-02T15:43:47.232Z,99314.13
2023-04-02T15:46:56.016Z,99315.30
2023-04-02T15:49:48.865Z,99326.03
2023-04-02T15:52:38.788Z,99321.20
2023-04-02T15:55:25.514Z,99326.88
2023-04-02T15:58:01.034Z,99327.22
2023-04-02T16:00:36.244Z,99330.91
2023-04-02T16:03:35.333Z,99333.73
2023-04-02T16:06:25.519Z,99333.94
2023-04-02T16:09:06.364Z,99332.36
2023-04-02T16:11:39.684Z,99339.50
2023-04-02T16:14:28.971Z,99334.47
2023-04-02T16:17:13.916Z,99339.73
2023-04-02T16:19:45.737Z,99344.15
2023-04-02T16:22:29.781Z,99347.53
2023-04-02T16:25:10.403Z,99346.68
2023-04-02T16:27:50.262Z,99354.48
2023-04-02T16:30:34.580Z,99354.48
2023-04-02T16:33:12.549Z,99363.33
2023-04-02T16:35:53.045Z,99358.89
2023-04-02T16:38:56.434Z,99360.70
2023-04-02T16:41:52.567Z,99364.16
2023-04-02T16:44:39.566Z,99370.08
2023-04-02T16:47:17.907Z,99368.37
2023-04-02T16:50:02.052Z,99373.02
2023-04-02T16:52:37.168Z,99383.55
2023-04-02T16:55:12.346Z,99376.70
2023-04-02T16:58:15.844Z,99387.42
2023-04-02T17:00:53.410Z,99385.84
2023-04-02T17:03:56.928Z,99387.95
2023-04-02T17:06:32.314Z,99384.66
2023-04-02T17:09:18.669Z,99392.68
2023-04-02T17:12:02.378Z,99384.88
2023-04-02T17:14:40.420Z,99391.06
2023-04-02T17:17:15.734Z,99391.20
2023-04-02T17:19:50.976Z,99380.53
2023-04-02T17:22:24.222Z,99388.56
2023-04-02T17:25:01.945Z,99389.39
2023-04-02T17:27:42.808Z,99390.14
2023-04-02T17:30:21.175Z,99389.19
2023-04-02T17:32:53.267Z,99391.83
2023-04-02T17:35:47.844Z,99387.52
2023-04-02T17:38:48.101Z,99385.80
2023-04-02T17:41:36.184Z,99396.33
2023-04-02T17:44:20.136Z,99404.13
2023-04-02T17:47:04.092Z,99407.81
2023-04-02T17:49:38.966Z,99406.86
2023-04-02T17:52:41.136Z,99407.72
2023-04-02T17:55:24.567Z,99404.23
2023-04-02T17:58:11.376Z,99407.72
2023-04-02T18:00:46.346Z,99405.18
2023-04-02T18:03:30.317Z,99405.18
2023-04-02T18:06:08.171Z,99404.23
2023-04-02T18:08:54.866Z,99407.62
2023-04-02T18:11:29.795Z,99405.18
2023-04-02T18:14:05.449Z,99411.30
2023-04-02T18:16:46.499Z,99418.44
2023-04-02T18:19:40.472Z,99415.08
2023-04-02T18:22:31.715Z,99411.49
2023-04-02T18:25:15.306Z,99415.27
2023-04-02T18:28:08.156Z,99412.73
2023-04-02T18:30:43.131Z,99409.56
2023-04-02T18:33:49.617Z,99420.09
2023-04-02T18:36:30.213Z,99418.61
2023-04-02T18:39:05.133Z,99417.66
2023-04-02T18:41:48.888Z,99429.98
2023-04-02T18:44:38.867Z,99423.86
2023-04-02T18:47:22.568Z,99425.45
2023-04-02T18:50:18.403Z,99429.13
2023-04-02T18:52:51.914Z,99431.03
2023-04-02T18:55:27.334Z,99426.15
2023-04-02T18:58:05.348Z,99429.73
2023-04-02T19:00:40.348Z,99431.50
2023-04-02T19:03:27.180Z,99426.23
2023-04-02T19:06:14.558Z,99431.50
2023-04-02T19:09:01.397Z,99436.77
2023-04-02T19:11:33.452Z,99433.22
2023-04-02T19:14:19.654Z,99431.31
2023-04-02T19:17:03.235Z,99430.36
2023-04-02T19:20:00.580Z,99436.48
2023-04-02T19:22:47.993Z,99437.30
2023-04-02T19:25:38.231Z,99435.53
2023-04-02T19:28:29.383Z,99445.96
2023-04-02T19:31:04.576Z,99438.16
2023-04-02T19:33:48.328Z,99434.58
2023-04-02T19:36:32.205Z,99438.16
2023-04-02T19:39:22.274Z,99445.96
2023-04-02T19:41:56.570Z,99445.11
2023-04-02T19:44:28.504Z,99446.06
2023-04-02T19:47:00.606Z,99438.48
2023-04-02T19:49:35.687Z,99443.73
2023-04-02T19:52:07.990Z,99444.66
2023-04-02T19:54:40.316Z,99444.02
2023-04-02T19:57:15.283Z,99448.52
2023-04-02T19:59:47.253Z,99442.53
2023-04-02T20:02:19.180Z,99445.16
2023-04-02T20:04:51.089Z,99446.94
2023-04-02T20:07:23.153Z,99451.15
2023-04-02T20:09:55.192Z,99453.78
2023-04-02T20:12:27.132Z,99452.87
2023-04-02T20:14:59.279Z,99456.41
2023-04-02T20:17:31.896Z,99451.15
2023-04-02T20:20:04.590Z,99454.73
2023-04-02T20:22:36.707Z,99458.31
2023-04-02T20:25:09.234Z,99458.41
2023-04-02T20:27:41.902Z,99460.30
2023-04-02T20:30:14.342Z,99460.40
2023-04-02T20:32:46.466Z,99458.91
2023-04-02T20:35:18.541Z,99468.66
2023-04-02T20:37:50.689Z,99467.07
2023-04-02T20:40:22.700Z,99467.25
2023-04-02T20:42:54.830Z,99470.93
2023-04-02T20:45:28.561Z,99466.61
2023-04-02T20:48:00.858Z,99463.25
2023-04-02T20:50:32.944Z,99469.43
2023-04-02T20:53:05.006Z,99466.89
2023-04-02T20:55:37.586Z,99461.72
2023-04-02T20:58:09.713Z,99472.42
2023-04-02T21:00:42.004Z,99469.80
2023-04-02T21:03:14.463Z,99472.52
2023-04-02T21:05:48.020Z,99468.20
2023-04-02T21:08:21.266Z,99465.66
2023-04-02T21:10:53.268Z,99463.89
2023-04-02T21:13:25.390Z,99458.63
2023-04-02T21:15:57.348Z,99462.27
2023-04-02T21:18:29.693Z,99461.45
2023-04-02T21:21:04.409Z,99469.42
2023-04-02T21:23:35.732Z,99467.74
2023-04-02T21:26:09.367Z,99467.47
2023-04-02T21:28:41.917Z,99463.31
2023-04-02T21:31:26.006Z,99463.52
2023-04-02T21:34:00.264Z,99459.27
2023-04-02T21:36:35.074Z,99460.77
2023-04-02T21:39:10.662Z,99471.50
2023-04-02T21:41:46.841Z,99465.56
2023-04-02T21:44:24.187Z,99472.63
2023-04-02T21:46:56.309Z,99477.80
2023-04-02T21:49:30.003Z,99483.97
2023-04-02T21:52:01.980Z,99476.94
2023-04-02T21:54:33.994Z,99468.96
2023-04-02T21:57:06.082Z,99477.98
2023-04-02T21:59:38.169Z,99479.75
2023-04-02T22:02:10.483Z,99485.95
2023-04-02T22:04:42.666Z,99482.55
2023-04-02T22:07:14.757Z,99484.45
2023-04-02T22:09:46.766Z,99481.81
2023-04-02T22:12:19.127Z,99480.05
2023-04-02T22:14:51.743Z,99477.42
2023-04-02T22:17:23.762Z,99479.02
2023-04-02T22:19:55.800Z,99485.48
2023-04-02T22:22:27.841Z,99481.53
2023-04-02T22:25:00.682Z,99483.69
2023-04-02T22:27:32.788Z,99493.46
2023-04-02T22:30:06.106Z,99488.38
2023-04-02T22:32:39.838Z,99485.93
2023-04-02T22:35:11.868Z,99483.48
2023-04-02T22:37:43.881Z,99486.31
2023-04-02T22:40:16.031Z,99491.74
2023-04-02T22:42:49.036Z,99494.28
2023-04-02T22:45:21.460Z,99496.05
2023-04-02T22:47:53.759Z,99490.06
2023-04-02T22:50:25.990Z,99483.86
2023-04-02T22:52:57.992Z,99484.72
2023-04-02T22:55:30.102Z,99477.48
2023-04-02T22:58:01.982Z,99480.85
2023-04-02T23:00:34.261Z,99483.39
2023-04-02T23:03:07.030Z,99484.25
2023-04-02T23:05:39.614Z,99484.98
2023-04-02T23:08:11.505Z,99485.75
2023-04-02T23:10:43.714Z,99481.23
2023-04-02T23:13:16.085Z,99485.58
2023-04-02T23:15:48.325Z,99483.69
2023-04-02T23:18:20.431Z,99488.00
2023-04-02T23:20:54.861Z,99487.27
2023-04-02T23:23:27.946Z,99482.00
2023-04-02T23:26:09.134Z,99490.63
2023-04-02T23:28:42.132Z,99485.58
2023-04-02T23:31:19.543Z,99485.58
2023-04-02T23:33:53.116Z,99494.38
2023-04-02T23:36:30.088Z,99490.06
2023-04-02T23:39:05.045Z,99490.83
2023-04-02T23:41:38.529Z,99489.98
2023-04-02T23:44:11.564Z,99495.14
2023-04-02T23:46:43.531Z,99490.83
2023-04-02T23:49:15.751Z,99493.46
2023-04-02T23:51:48.764Z,99490.83
2023-04-02T23:54:20.920Z,99486.31
2023-04-02T23:56:54.556Z,99488.94
2023-04-02T23:59:26.619Z,99486.41
